sensor_id;sensor_type;location;lat;lon;timestamp;P1;durP1;ratioP1;P2;durP2;ratioP2
75818;SDS011;64453;51.944;9.796;2024-01-06T00:01:09;2.73;;;1.00;;
75818;SDS011;64453;51.944;9.796;2024-01-06T00:03:38;0.87;;;0.87;;
75818;SDS011;64453;51.944;9.796;2024-01-06T00:06:05;1.13;;;0.70;;
75818;SDS011;64453;51.944;9.796;2024-01-06T00:08:33;2.83;;;1.03;;
75818;SDS011;64453;51.944;9.796;2024-01-06T00:10:59;0.90;;;0.80;;
75818;SDS011;64453;51.944;9.796;2024-01-06T00:13:28;1.70;;;1.00;;
75818;SDS011;64453;51.944;9.796;2024-01-06T00:15:55;2.10;;;1.07;;
75818;SDS011;64453;51.944;9.796;2024-01-06T00:18:22;1.37;;;1.10;;
75818;SDS011;64453;51.944;9.796;2024-01-06T00:20:50;2.07;;;1.03;;
75818;SDS011;64453;51.944;9.796;2024-01-06T00:23:17;2.10;;;1.87;;
75818;SDS011;64453;51.944;9.796;2024-01-06T00:25:44;2.53;;;0.90;;
75818;SDS011;64453;51.944;9.796;2024-01-06T00:28:11;1.37;;;0.70;;
75818;SDS011;64453;51.944;9.796;2024-01-06T00:30:38;1.70;;;0.67;;
75818;SDS011;64453;51.944;9.796;2024-01-06T00:33:04;0.70;;;0.70;;
75818;SDS011;64453;51.944;9.796;2024-01-06T00:35:31;1.43;;;0.80;;
75818;SDS011;64453;51.944;9.796;2024-01-06T00:38:00;1.97;;;1.07;;
75818;SDS011;64453;51.944;9.796;2024-01-06T00:40:27;2.03;;;0.80;;
75818;SDS011;64453;51.944;9.796;2024-01-06T00:42:54;1.17;;;0.90;;
75818;SDS011;64453;51.944;9.796;2024-01-06T00:45:21;1.37;;;0.57;;
75818;SDS011;64453;51.944;9.796;2024-01-06T00:47:48;1.03;;;0.90;;
75818;SDS011;64453;51.944;9.796;2024-01-06T00:50:15;1.60;;;0.63;;
75818;SDS011;64453;51.944;9.796;2024-01-06T00:52:44;1.73;;;0.80;;
75818;SDS011;64453;51.944;9.796;2024-01-06T00:55:12;1.47;;;0.87;;
75818;SDS011;64453;51.944;9.796;2024-01-06T00:57:39;1.30;;;0.70;;
75818;SDS011;64453;51.944;9.796;2024-01-06T01:00:06;0.90;;;0.70;;
75818;SDS011;64453;51.944;9.796;2024-01-06T01:02:34;0.70;;;0.70;;
75818;SDS011;64453;51.944;9.796;2024-01-06T01:05:01;5.33;;;0.83;;
75818;SDS011;64453;51.944;9.796;2024-01-06T01:07:28;1.80;;;0.97;;
75818;SDS011;64453;51.944;9.796;2024-01-06T01:09:55;2.40;;;1.00;;
75818;SDS011;64453;51.944;9.796;2024-01-06T01:12:24;0.90;;;0.80;;
75818;SDS011;64453;51.944;9.796;2024-01-06T01:14:51;2.10;;;0.90;;
75818;SDS011;64453;51.944;9.796;2024-01-06T01:17:19;1.07;;;0.90;;
75818;SDS011;64453;51.944;9.796;2024-01-06T01:19:46;1.73;;;1.43;;
75818;SDS011;64453;51.944;9.796;2024-01-06T01:22:13;1.70;;;1.60;;
75818;SDS011;64453;51.944;9.796;2024-01-06T01:24:40;2.53;;;1.00;;
75818;SDS011;64453;51.944;9.796;2024-01-06T01:27:08;0.97;;;0.70;;
75818;SDS011;64453;51.944;9.796;2024-01-06T01:29:36;1.23;;;0.80;;
75818;SDS011;64453;51.944;9.796;2024-01-06T01:32:03;1.00;;;0.90;;
75818;SDS011;64453;51.944;9.796;2024-01-06T01:34:31;5.20;;;1.00;;
75818;SDS011;64453;51.944;9.796;2024-01-06T01:36:59;1.10;;;0.97;;
75818;SDS011;64453;51.944;9.796;2024-01-06T01:39:26;3.17;;;1.10;;
75818;SDS011;64453;51.944;9.796;2024-01-06T01:41:53;1.10;;;0.97;;
75818;SDS011;64453;51.944;9.796;2024-01-06T01:44:20;3.43;;;1.10;;
75818;SDS011;64453;51.944;9.796;2024-01-06T01:46:48;1.10;;;1.10;;
75818;SDS011;64453;51.944;9.796;2024-01-06T01:49:15;0.80;;;0.80;;
75818;SDS011;64453;51.944;9.796;2024-01-06T01:51:42;1.40;;;1.30;;
75818;SDS011;64453;51.944;9.796;2024-01-06T01:54:09;1.80;;;0.97;;
75818;SDS011;64453;51.944;9.796;2024-01-06T01:56:36;0.80;;;0.70;;
75818;SDS011;64453;51.944;9.796;2024-01-06T01:59:08;4.83;;;1.10;;
75818;SDS011;64453;51.944;9.796;2024-01-06T02:01:38;2.43;;;0.90;;
75818;SDS011;64453;51.944;9.796;2024-01-06T02:04:07;1.23;;;0.90;;
75818;SDS011;64453;51.944;9.796;2024-01-06T02:06:34;4.53;;;1.17;;
75818;SDS011;64453;51.944;9.796;2024-01-06T02:09:01;2.93;;;0.90;;
75818;SDS011;64453;51.944;9.796;2024-01-06T02:11:28;1.07;;;0.90;;
75818;SDS011;64453;51.944;9.796;2024-01-06T02:13:55;1.00;;;0.90;;
75818;SDS011;64453;51.944;9.796;2024-01-06T02:16:22;1.10;;;1.10;;
75818;SDS011;64453;51.944;9.796;2024-01-06T02:18:49;1.57;;;1.23;;
75818;SDS011;64453;51.944;9.796;2024-01-06T02:21:18;2.10;;;0.87;;
75818;SDS011;64453;51.944;9.796;2024-01-06T02:23:49;1.70;;;0.97;;
75818;SDS011;64453;51.944;9.796;2024-01-06T02:26:16;1.00;;;1.00;;
75818;SDS011;64453;51.944;9.796;2024-01-06T02:28:43;1.27;;;0.70;;
75818;SDS011;64453;51.944;9.796;2024-01-06T02:31:13;1.27;;;1.00;;
75818;SDS011;64453;51.944;9.796;2024-01-06T02:33:39;4.60;;;0.80;;
75818;SDS011;64453;51.944;9.796;2024-01-06T02:36:07;1.27;;;0.47;;
75818;SDS011;64453;51.944;9.796;2024-01-06T02:38:33;2.97;;;0.80;;
75818;SDS011;64453;51.944;9.796;2024-01-06T02:41:02;1.17;;;0.70;;
75818;SDS011;64453;51.944;9.796;2024-01-06T02:43:29;1.17;;;0.97;;
75818;SDS011;64453;51.944;9.796;2024-01-06T02:45:56;2.93;;;0.77;;
75818;SDS011;64453;51.944;9.796;2024-01-06T02:48:23;2.37;;;0.90;;
75818;SDS011;64453;51.944;9.796;2024-01-06T02:50:49;1.20;;;0.90;;
75818;SDS011;64453;51.944;9.796;2024-01-06T02:53:16;0.60;;;0.60;;
75818;SDS011;64453;51.944;9.796;2024-01-06T02:55:43;0.97;;;0.80;;
75818;SDS011;64453;51.944;9.796;2024-01-06T02:58:11;1.63;;;1.20;;
75818;SDS011;64453;51.944;9.796;2024-01-06T03:00:38;1.50;;;0.90;;
75818;SDS011;64453;51.944;9.796;2024-01-06T03:03:05;1.07;;;0.87;;
75818;SDS011;64453;51.944;9.796;2024-01-06T03:05:32;1.10;;;1.00;;
75818;SDS011;64453;51.944;9.796;2024-01-06T03:07:59;1.63;;;0.70;;
75818;SDS011;64453;51.944;9.796;2024-01-06T03:10:26;0.70;;;0.70;;
75818;SDS011;64453;51.944;9.796;2024-01-06T03:12:53;1.23;;;0.70;;
75818;SDS011;64453;51.944;9.796;2024-01-06T03:15:21;1.83;;;1.33;;
75818;SDS011;64453;51.944;9.796;2024-01-06T03:17:48;4.20;;;1.13;;
75818;SDS011;64453;51.944;9.796;2024-01-06T03:20:15;0.80;;;0.80;;
75818;SDS011;64453;51.944;9.796;2024-01-06T03:22:42;1.67;;;0.70;;
75818;SDS011;64453;51.944;9.796;2024-01-06T03:25:09;1.40;;;0.80;;
75818;SDS011;64453;51.944;9.796;2024-01-06T03:27:36;1.43;;;1.13;;
75818;SDS011;64453;51.944;9.796;2024-01-06T03:30:03;1.50;;;1.00;;
75818;SDS011;64453;51.944;9.796;2024-01-06T03:32:33;2.43;;;1.53;;
75818;SDS011;64453;51.944;9.796;2024-01-06T03:35:00;2.33;;;1.13;;
75818;SDS011;64453;51.944;9.796;2024-01-06T03:37:28;1.00;;;0.97;;
75818;SDS011;64453;51.944;9.796;2024-01-06T03:39:55;0.80;;;0.80;;
75818;SDS011;64453;51.944;9.796;2024-01-06T03:42:21;2.33;;;1.20;;
75818;SDS011;64453;51.944;9.796;2024-01-06T03:44:48;1.27;;;1.17;;
75818;SDS011;64453;51.944;9.796;2024-01-06T03:47:15;1.40;;;1.30;;
75818;SDS011;64453;51.944;9.796;2024-01-06T03:49:44;1.13;;;0.80;;
75818;SDS011;64453;51.944;9.796;2024-01-06T03:52:11;1.00;;;0.80;;
75818;SDS011;64453;51.944;9.796;2024-01-06T03:54:39;2.13;;;1.30;;
75818;SDS011;64453;51.944;9.796;2024-01-06T03:57:05;1.00;;;1.00;;
75818;SDS011;64453;51.944;9.796;2024-01-06T03:59:32;1.50;;;1.40;;
75818;SDS011;64453;51.944;9.796;2024-01-06T04:01:59;1.13;;;0.90;;
75818;SDS011;64453;51.944;9.796;2024-01-06T04:04:26;2.20;;;0.90;;
75818;SDS011;64453;51.944;9.796;2024-01-06T04:06:54;3.33;;;1.10;;
75818;SDS011;64453;51.944;9.796;2024-01-06T04:09:21;1.00;;;1.00;;
75818;SDS011;64453;51.944;9.796;2024-01-06T04:11:48;1.00;;;0.90;;
75818;SDS011;64453;51.944;9.796;2024-01-06T04:14:15;1.27;;;1.10;;
75818;SDS011;64453;51.944;9.796;2024-01-06T04:16:41;1.00;;;1.00;;
75818;SDS011;64453;51.944;9.796;2024-01-06T04:19:08;1.20;;;0.83;;
75818;SDS011;64453;51.944;9.796;2024-01-06T04:21:37;2.00;;;1.20;;
75818;SDS011;64453;51.944;9.796;2024-01-06T04:24:06;1.27;;;0.90;;
75818;SDS011;64453;51.944;9.796;2024-01-06T04:26:34;1.00;;;0.90;;
75818;SDS011;64453;51.944;9.796;2024-01-06T04:29:01;2.23;;;1.00;;
75818;SDS011;64453;51.944;9.796;2024-01-06T04:31:28;1.53;;;1.07;;
75818;SDS011;64453;51.944;9.796;2024-01-06T04:33:54;2.30;;;0.90;;
75818;SDS011;64453;51.944;9.796;2024-01-06T04:36:21;1.80;;;1.13;;
75818;SDS011;64453;51.944;9.796;2024-01-06T04:38:48;1.13;;;0.80;;
75818;SDS011;64453;51.944;9.796;2024-01-06T04:41:16;1.73;;;1.00;;
75818;SDS011;64453;51.944;9.796;2024-01-06T04:43:43;2.53;;;1.23;;
75818;SDS011;64453;51.944;9.796;2024-01-06T04:46:10;1.47;;;1.17;;
75818;SDS011;64453;51.944;9.796;2024-01-06T04:48:39;2.27;;;1.00;;
75818;SDS011;64453;51.944;9.796;2024-01-06T04:51:08;0.80;;;0.80;;
75818;SDS011;64453;51.944;9.796;2024-01-06T04:53:36;1.37;;;1.10;;
75818;SDS011;64453;51.944;9.796;2024-01-06T04:56:04;1.27;;;1.00;;
75818;SDS011;64453;51.944;9.796;2024-01-06T04:58:33;1.00;;;0.90;;
75818;SDS011;64453;51.944;9.796;2024-01-06T05:01:00;4.03;;;1.27;;
75818;SDS011;64453;51.944;9.796;2024-01-06T05:03:27;2.97;;;1.10;;
75818;SDS011;64453;51.944;9.796;2024-01-06T05:05:54;1.40;;;1.00;;
75818;SDS011;64453;51.944;9.796;2024-01-06T05:08:21;1.67;;;1.30;;
75818;SDS011;64453;51.944;9.796;2024-01-06T05:10:50;0.87;;;0.70;;
75818;SDS011;64453;51.944;9.796;2024-01-06T05:13:18;2.60;;;1.13;;
75818;SDS011;64453;51.944;9.796;2024-01-06T05:15:46;1.27;;;1.17;;
75818;SDS011;64453;51.944;9.796;2024-01-06T05:18:13;3.07;;;1.10;;
75818;SDS011;64453;51.944;9.796;2024-01-06T05:20:40;1.13;;;1.10;;
75818;SDS011;64453;51.944;9.796;2024-01-06T05:23:07;2.17;;;1.23;;
75818;SDS011;64453;51.944;9.796;2024-01-06T05:25:33;2.40;;;1.17;;
75818;SDS011;64453;51.944;9.796;2024-01-06T05:28:00;1.30;;;1.00;;
75818;SDS011;64453;51.944;9.796;2024-01-06T05:30:27;2.43;;;0.80;;
75818;SDS011;64453;51.944;9.796;2024-01-06T05:32:55;1.63;;;1.03;;
75818;SDS011;64453;51.944;9.796;2024-01-06T05:35:22;3.33;;;1.30;;
75818;SDS011;64453;51.944;9.796;2024-01-06T05:37:49;1.80;;;1.00;;
75818;SDS011;64453;51.944;9.796;2024-01-06T05:40:15;1.37;;;1.23;;
75818;SDS011;64453;51.944;9.796;2024-01-06T05:42:42;3.13;;;0.97;;
75818;SDS011;64453;51.944;9.796;2024-01-06T05:45:10;2.00;;;1.10;;
75818;SDS011;64453;51.944;9.796;2024-01-06T05:47:38;1.57;;;1.13;;
75818;SDS011;64453;51.944;9.796;2024-01-06T05:50:07;2.50;;;1.30;;
75818;SDS011;64453;51.944;9.796;2024-01-06T05:52:35;1.20;;;1.10;;
75818;SDS011;64453;51.944;9.796;2024-01-06T05:55:02;3.10;;;1.27;;
75818;SDS011;64453;51.944;9.796;2024-01-06T05:57:30;2.40;;;1.10;;
75818;SDS011;64453;51.944;9.796;2024-01-06T05:59:56;1.37;;;1.13;;
75818;SDS011;64453;51.944;9.796;2024-01-06T06:02:23;1.60;;;1.50;;
75818;SDS011;64453;51.944;9.796;2024-01-06T06:04:50;1.67;;;1.20;;
75818;SDS011;64453;51.944;9.796;2024-01-06T06:07:18;1.70;;;1.20;;
75818;SDS011;64453;51.944;9.796;2024-01-06T06:09:45;1.53;;;1.20;;
75818;SDS011;64453;51.944;9.796;2024-01-06T06:12:12;1.40;;;1.30;;
75818;SDS011;64453;51.944;9.796;2024-01-06T06:14:39;1.10;;;1.10;;
75818;SDS011;64453;51.944;9.796;2024-01-06T06:17:07;1.80;;;0.97;;
75818;SDS011;64453;51.944;9.796;2024-01-06T06:19:34;2.57;;;1.83;;
75818;SDS011;64453;51.944;9.796;2024-01-06T06:22:00;2.17;;;1.80;;
75818;SDS011;64453;51.944;9.796;2024-01-06T06:24:28;1.53;;;1.43;;
75818;SDS011;64453;51.944;9.796;2024-01-06T06:26:56;1.03;;;1.03;;
75818;SDS011;64453;51.944;9.796;2024-01-06T06:29:22;1.10;;;1.00;;
75818;SDS011;64453;51.944;9.796;2024-01-06T06:31:49;5.30;;;1.50;;
75818;SDS011;64453;51.944;9.796;2024-01-06T06:34:16;2.20;;;1.57;;
75818;SDS011;64453;51.944;9.796;2024-01-06T06:36:43;2.30;;;1.50;;
75818;SDS011;64453;51.944;9.796;2024-01-06T06:39:11;2.10;;;1.40;;
75818;SDS011;64453;51.944;9.796;2024-01-06T06:41:39;1.67;;;1.57;;
75818;SDS011;64453;51.944;9.796;2024-01-06T06:44:06;1.40;;;1.30;;
75818;SDS011;64453;51.944;9.796;2024-01-06T06:46:34;1.33;;;1.10;;
75818;SDS011;64453;51.944;9.796;2024-01-06T06:49:00;3.90;;;1.43;;
75818;SDS011;64453;51.944;9.796;2024-01-06T06:51:28;0.90;;;0.90;;
75818;SDS011;64453;51.944;9.796;2024-01-06T06:53:55;4.33;;;1.87;;
75818;SDS011;64453;51.944;9.796;2024-01-06T06:56:23;2.30;;;1.30;;
75818;SDS011;64453;51.944;9.796;2024-01-06T06:58:51;1.13;;;1.13;;
75818;SDS011;64453;51.944;9.796;2024-01-06T07:01:18;1.47;;;1.37;;
75818;SDS011;64453;51.944;9.796;2024-01-06T07:03:45;2.37;;;1.20;;
75818;SDS011;64453;51.944;9.796;2024-01-06T07:06:12;1.23;;;1.13;;
75818;SDS011;64453;51.944;9.796;2024-01-06T07:08:39;1.43;;;1.33;;
75818;SDS011;64453;51.944;9.796;2024-01-06T07:11:07;4.53;;;1.30;;
75818;SDS011;64453;51.944;9.796;2024-01-06T07:13:34;8.90;;;1.90;;
75818;SDS011;64453;51.944;9.796;2024-01-06T07:16:02;4.20;;;1.67;;
75818;SDS011;64453;51.944;9.796;2024-01-06T07:18:29;4.00;;;1.83;;
75818;SDS011;64453;51.944;9.796;2024-01-06T07:20:56;1.93;;;1.80;;
75818;SDS011;64453;51.944;9.796;2024-01-06T07:23:23;1.93;;;1.80;;
75818;SDS011;64453;51.944;9.796;2024-01-06T07:25:50;4.40;;;2.27;;
75818;SDS011;64453;51.944;9.796;2024-01-06T07:28:16;7.67;;;4.50;;
75818;SDS011;64453;51.944;9.796;2024-01-06T07:30:43;7.30;;;4.47;;
75818;SDS011;64453;51.944;9.796;2024-01-06T07:33:11;6.80;;;4.73;;
75818;SDS011;64453;51.944;9.796;2024-01-06T07:35:39;4.03;;;3.50;;
75818;SDS011;64453;51.944;9.796;2024-01-06T07:38:08;6.40;;;3.33;;
75818;SDS011;64453;51.944;9.796;2024-01-06T07:40:36;4.60;;;4.17;;
75818;SDS011;64453;51.944;9.796;2024-01-06T07:43:03;5.03;;;4.10;;
75818;SDS011;64453;51.944;9.796;2024-01-06T07:45:30;4.20;;;2.83;;
75818;SDS011;64453;51.944;9.796;2024-01-06T07:47:57;6.70;;;2.97;;
75818;SDS011;64453;51.944;9.796;2024-01-06T07:50:25;2.40;;;2.13;;
75818;SDS011;64453;51.944;9.796;2024-01-06T07:52:53;2.70;;;2.50;;
75818;SDS011;64453;51.944;9.796;2024-01-06T07:55:20;2.10;;;2.00;;
75818;SDS011;64453;51.944;9.796;2024-01-06T07:57:46;2.63;;;1.93;;
75818;SDS011;64453;51.944;9.796;2024-01-06T08:00:13;2.03;;;1.67;;
75818;SDS011;64453;51.944;9.796;2024-01-06T08:02:41;1.77;;;1.67;;
75818;SDS011;64453;51.944;9.796;2024-01-06T08:05:08;2.33;;;1.83;;
75818;SDS011;64453;51.944;9.796;2024-01-06T08:07:37;2.70;;;2.00;;
75818;SDS011;64453;51.944;9.796;2024-01-06T08:10:04;2.40;;;2.20;;
75818;SDS011;64453;51.944;9.796;2024-01-06T08:12:33;2.93;;;2.23;;
75818;SDS011;64453;51.944;9.796;2024-01-06T08:15:00;2.80;;;2.20;;
75818;SDS011;64453;51.944;9.796;2024-01-06T08:17:27;2.83;;;2.63;;
75818;SDS011;64453;51.944;9.796;2024-01-06T08:19:54;4.00;;;2.97;;
75818;SDS011;64453;51.944;9.796;2024-01-06T08:22:21;2.47;;;2.27;;
75818;SDS011;64453;51.944;9.796;2024-01-06T08:24:49;3.30;;;2.13;;
75818;SDS011;64453;51.944;9.796;2024-01-06T08:27:16;3.03;;;1.97;;
75818;SDS011;64453;51.944;9.796;2024-01-06T08:29:43;2.67;;;2.47;;
75818;SDS011;64453;51.944;9.796;2024-01-06T08:32:10;4.17;;;3.00;;
75818;SDS011;64453;51.944;9.796;2024-01-06T08:34:38;2.57;;;2.37;;
75818;SDS011;64453;51.944;9.796;2024-01-06T08:37:04;2.37;;;2.27;;
75818;SDS011;64453;51.944;9.796;2024-01-06T08:39:31;3.23;;;2.70;;
75818;SDS011;64453;51.944;9.796;2024-01-06T08:41:59;2.90;;;2.70;;
75818;SDS011;64453;51.944;9.796;2024-01-06T08:44:26;2.50;;;2.40;;
75818;SDS011;64453;51.944;9.796;2024-01-06T08:46:53;3.40;;;3.10;;
75818;SDS011;64453;51.944;9.796;2024-01-06T08:49:20;7.20;;;4.10;;
75818;SDS011;64453;51.944;9.796;2024-01-06T08:51:47;6.73;;;4.63;;
75818;SDS011;64453;51.944;9.796;2024-01-06T08:54:13;6.80;;;5.67;;
75818;SDS011;64453;51.944;9.796;2024-01-06T08:56:41;6.03;;;4.70;;
75818;SDS011;64453;51.944;9.796;2024-01-06T08:59:09;5.23;;;4.73;;
75818;SDS011;64453;51.944;9.796;2024-01-06T09:01:35;6.50;;;5.80;;
75818;SDS011;64453;51.944;9.796;2024-01-06T09:04:03;9.37;;;6.90;;
75818;SDS011;64453;51.944;9.796;2024-01-06T09:06:34;8.87;;;6.70;;
75818;SDS011;64453;51.944;9.796;2024-01-06T09:09:01;9.87;;;6.50;;
75818;SDS011;64453;51.944;9.796;2024-01-06T09:11:28;8.53;;;6.20;;
75818;SDS011;64453;51.944;9.796;2024-01-06T09:13:54;6.00;;;5.40;;
75818;SDS011;64453;51.944;9.796;2024-01-06T09:16:23;8.40;;;5.33;;
75818;SDS011;64453;51.944;9.796;2024-01-06T09:18:50;5.60;;;4.20;;
75818;SDS011;64453;51.944;9.796;2024-01-06T09:21:17;9.17;;;6.57;;
75818;SDS011;64453;51.944;9.796;2024-01-06T09:23:44;7.53;;;4.10;;
75818;SDS011;64453;51.944;9.796;2024-01-06T09:26:10;4.90;;;3.33;;
75818;SDS011;64453;51.944;9.796;2024-01-06T09:28:37;3.93;;;3.40;;
75818;SDS011;64453;51.944;9.796;2024-01-06T09:31:04;5.17;;;3.50;;
75818;SDS011;64453;51.944;9.796;2024-01-06T09:33:32;4.80;;;4.30;;
75818;SDS011;64453;51.944;9.796;2024-01-06T09:35:59;4.07;;;3.67;;
75818;SDS011;64453;51.944;9.796;2024-01-06T09:38:26;7.73;;;6.93;;
75818;SDS011;64453;51.944;9.796;2024-01-06T09:40:53;5.90;;;4.63;;
75818;SDS011;64453;51.944;9.796;2024-01-06T09:43:22;4.67;;;4.27;;
75818;SDS011;64453;51.944;9.796;2024-01-06T09:45:53;4.17;;;3.77;;
75818;SDS011;64453;51.944;9.796;2024-01-06T09:48:26;6.17;;;4.10;;
75818;SDS011;64453;51.944;9.796;2024-01-06T09:50:58;3.47;;;3.20;;
75818;SDS011;64453;51.944;9.796;2024-01-06T09:53:34;4.57;;;3.37;;
75818;SDS011;64453;51.944;9.796;2024-01-06T09:56:02;3.80;;;3.50;;
75818;SDS011;64453;51.944;9.796;2024-01-06T09:58:31;3.53;;;3.23;;
75818;SDS011;64453;51.944;9.796;2024-01-06T10:01:00;4.93;;;3.20;;
75818;SDS011;64453;51.944;9.796;2024-01-06T10:03:28;3.83;;;3.50;;
75818;SDS011;64453;51.944;9.796;2024-01-06T10:05:55;4.40;;;3.77;;
75818;SDS011;64453;51.944;9.796;2024-01-06T10:08:27;4.93;;;4.47;;
75818;SDS011;64453;51.944;9.796;2024-01-06T10:10:53;4.80;;;4.33;;
75818;SDS011;64453;51.944;9.796;2024-01-06T10:13:20;5.40;;;3.90;;
75818;SDS011;64453;51.944;9.796;2024-01-06T10:15:49;3.40;;;3.20;;
75818;SDS011;64453;51.944;9.796;2024-01-06T10:18:16;6.10;;;4.00;;
75818;SDS011;64453;51.944;9.796;2024-01-06T10:20:44;3.40;;;3.20;;
75818;SDS011;64453;51.944;9.796;2024-01-06T10:23:11;3.13;;;2.93;;
75818;SDS011;64453;51.944;9.796;2024-01-06T10:25:40;3.67;;;3.40;;
75818;SDS011;64453;51.944;9.796;2024-01-06T10:28:11;7.07;;;3.33;;
75818;SDS011;64453;51.944;9.796;2024-01-06T10:30:39;4.67;;;3.43;;
75818;SDS011;64453;51.944;9.796;2024-01-06T10:33:08;4.13;;;3.30;;
75818;SDS011;64453;51.944;9.796;2024-01-06T10:35:35;4.33;;;3.93;;
75818;SDS011;64453;51.944;9.796;2024-01-06T10:38:02;4.40;;;4.03;;
75818;SDS011;64453;51.944;9.796;2024-01-06T10:40:30;3.80;;;3.60;;
75818;SDS011;64453;51.944;9.796;2024-01-06T10:42:59;6.27;;;5.03;;
75818;SDS011;64453;51.944;9.796;2024-01-06T10:45:26;6.03;;;5.43;;
75818;SDS011;64453;51.944;9.796;2024-01-06T10:47:55;5.40;;;4.90;;
75818;SDS011;64453;51.944;9.796;2024-01-06T10:50:23;5.30;;;4.80;;
75818;SDS011;64453;51.944;9.796;2024-01-06T10:52:50;5.83;;;4.93;;
75818;SDS011;64453;51.944;9.796;2024-01-06T10:55:19;5.50;;;5.00;;
75818;SDS011;64453;51.944;9.796;2024-01-06T10:57:47;5.40;;;4.93;;
75818;SDS011;64453;51.944;9.796;2024-01-06T11:00:19;6.20;;;5.33;;
75818;SDS011;64453;51.944;9.796;2024-01-06T11:02:46;6.13;;;5.00;;
75818;SDS011;64453;51.944;9.796;2024-01-06T11:05:17;5.43;;;4.93;;
75818;SDS011;64453;51.944;9.796;2024-01-06T11:07:47;6.03;;;4.00;;
75818;SDS011;64453;51.944;9.796;2024-01-06T11:10:17;5.03;;;3.90;;
75818;SDS011;64453;51.944;9.796;2024-01-06T11:12:45;4.70;;;4.30;;
75818;SDS011;64453;51.944;9.796;2024-01-06T11:15:43;4.47;;;4.07;;
75818;SDS011;64453;51.944;9.796;2024-01-06T11:18:34;6.13;;;4.33;;
75818;SDS011;64453;51.944;9.796;2024-01-06T11:21:16;4.53;;;3.80;;
75818;SDS011;64453;51.944;9.796;2024-01-06T11:26:52;5.83;;;4.00;;
75818;SDS011;64453;51.944;9.796;2024-01-06T11:29:22;4.50;;;4.10;;
75818;SDS011;64453;51.944;9.796;2024-01-06T11:34:48;6.40;;;3.80;;
75818;SDS011;64453;51.944;9.796;2024-01-06T11:37:19;3.60;;;3.23;;
75818;SDS011;64453;51.944;9.796;2024-01-06T11:39:49;4.30;;;3.90;;
75818;SDS011;64453;51.944;9.796;2024-01-06T11:42:18;3.30;;;3.10;;
75818;SDS011;64453;51.944;9.796;2024-01-06T11:44:49;3.40;;;3.10;;
75818;SDS011;64453;51.944;9.796;2024-01-06T11:47:18;2.90;;;2.70;;
75818;SDS011;64453;51.944;9.796;2024-01-06T11:49:48;4.50;;;3.53;;
75818;SDS011;64453;51.944;9.796;2024-01-06T11:52:22;3.73;;;3.43;;
75818;SDS011;64453;51.944;9.796;2024-01-06T11:54:51;4.10;;;3.70;;
75818;SDS011;64453;51.944;9.796;2024-01-06T11:57:19;4.23;;;3.90;;
75818;SDS011;64453;51.944;9.796;2024-01-06T11:59:46;4.20;;;3.80;;
75818;SDS011;64453;51.944;9.796;2024-01-06T12:02:17;4.37;;;3.60;;
75818;SDS011;64453;51.944;9.796;2024-01-06T12:04:48;4.43;;;3.30;;
75818;SDS011;64453;51.944;9.796;2024-01-06T12:07:16;4.40;;;3.20;;
75818;SDS011;64453;51.944;9.796;2024-01-06T12:09:45;4.57;;;3.23;;
75818;SDS011;64453;51.944;9.796;2024-01-06T12:12:15;6.40;;;3.77;;
75818;SDS011;64453;51.944;9.796;2024-01-06T12:14:42;4.13;;;3.60;;
75818;SDS011;64453;51.944;9.796;2024-01-06T12:17:11;3.73;;;3.43;;
75818;SDS011;64453;51.944;9.796;2024-01-06T12:19:40;2.77;;;2.57;;
75818;SDS011;64453;51.944;9.796;2024-01-06T12:22:09;3.00;;;2.70;;
75818;SDS011;64453;51.944;9.796;2024-01-06T12:24:38;3.00;;;2.73;;
75818;SDS011;64453;51.944;9.796;2024-01-06T12:27:06;4.17;;;2.90;;
75818;SDS011;64453;51.944;9.796;2024-01-06T12:29:37;2.60;;;2.43;;
75818;SDS011;64453;51.944;9.796;2024-01-06T12:32:05;4.03;;;2.40;;
75818;SDS011;64453;51.944;9.796;2024-01-06T12:34:33;2.60;;;2.40;;
75818;SDS011;64453;51.944;9.796;2024-01-06T12:37:02;2.67;;;2.47;;
75818;SDS011;64453;51.944;9.796;2024-01-06T12:39:29;2.60;;;2.50;;
75818;SDS011;64453;51.944;9.796;2024-01-06T12:41:57;2.30;;;2.20;;
75818;SDS011;64453;51.944;9.796;2024-01-06T12:44:25;2.37;;;2.17;;
75818;SDS011;64453;51.944;9.796;2024-01-06T12:46:52;2.77;;;2.20;;
75818;SDS011;64453;51.944;9.796;2024-01-06T12:49:19;2.47;;;2.33;;
75818;SDS011;64453;51.944;9.796;2024-01-06T12:51:46;4.60;;;4.20;;
75818;SDS011;64453;51.944;9.796;2024-01-06T12:54:14;5.03;;;4.53;;
75818;SDS011;64453;51.944;9.796;2024-01-06T12:56:41;5.83;;;5.20;;
75818;SDS011;64453;51.944;9.796;2024-01-06T12:59:08;6.50;;;5.23;;
75818;SDS011;64453;51.944;9.796;2024-01-06T13:01:36;5.70;;;5.20;;
75818;SDS011;64453;51.944;9.796;2024-01-06T13:04:03;6.73;;;6.07;;
75818;SDS011;64453;51.944;9.796;2024-01-06T13:06:30;6.90;;;5.40;;
75818;SDS011;64453;51.944;9.796;2024-01-06T13:08:57;7.13;;;5.90;;
75818;SDS011;64453;51.944;9.796;2024-01-06T13:11:25;6.00;;;5.43;;
75818;SDS011;64453;51.944;9.796;2024-01-06T13:13:53;6.13;;;5.47;;
75818;SDS011;64453;51.944;9.796;2024-01-06T13:16:20;6.67;;;5.83;;
75818;SDS011;64453;51.944;9.796;2024-01-06T13:18:47;6.30;;;5.57;;
75818;SDS011;64453;51.944;9.796;2024-01-06T13:21:13;6.23;;;4.70;;
75818;SDS011;64453;51.944;9.796;2024-01-06T13:23:40;7.53;;;5.40;;
75818;SDS011;64453;51.944;9.796;2024-01-06T13:26:08;5.50;;;5.00;;
75818;SDS011;64453;51.944;9.796;2024-01-06T13:28:36;5.60;;;5.13;;
75818;SDS011;64453;51.944;9.796;2024-01-06T13:31:03;8.13;;;5.03;;
75818;SDS011;64453;51.944;9.796;2024-01-06T13:33:30;5.83;;;5.23;;
75818;SDS011;64453;51.944;9.796;2024-01-06T13:35:57;7.20;;;5.00;;
75818;SDS011;64453;51.944;9.796;2024-01-06T13:38:24;5.30;;;4.80;;
75818;SDS011;64453;51.944;9.796;2024-01-06T13:40:51;6.37;;;5.07;;
75818;SDS011;64453;51.944;9.796;2024-01-06T13:43:18;6.73;;;4.93;;
75818;SDS011;64453;51.944;9.796;2024-01-06T13:45:47;6.43;;;5.80;;
75818;SDS011;64453;51.944;9.796;2024-01-06T13:48:14;8.83;;;5.43;;
75818;SDS011;64453;51.944;9.796;2024-01-06T13:50:41;7.67;;;6.00;;
75818;SDS011;64453;51.944;9.796;2024-01-06T13:53:08;7.17;;;5.90;;
75818;SDS011;64453;51.944;9.796;2024-01-06T13:55:35;7.03;;;5.97;;
75818;SDS011;64453;51.944;9.796;2024-01-06T13:58:02;9.67;;;7.13;;
75818;SDS011;64453;51.944;9.796;2024-01-06T14:00:29;8.00;;;6.13;;
75818;SDS011;64453;51.944;9.796;2024-01-06T14:02:57;5.70;;;5.10;;
75818;SDS011;64453;51.944;9.796;2024-01-06T14:05:24;7.43;;;6.10;;
75818;SDS011;64453;51.944;9.796;2024-01-06T14:07:51;7.83;;;6.40;;
75818;SDS011;64453;51.944;9.796;2024-01-06T14:10:18;8.40;;;5.93;;
75818;SDS011;64453;51.944;9.796;2024-01-06T14:12:46;6.10;;;5.50;;
75818;SDS011;64453;51.944;9.796;2024-01-06T14:15:13;8.70;;;5.57;;
75818;SDS011;64453;51.944;9.796;2024-01-06T14:17:40;6.37;;;5.37;;
75818;SDS011;64453;51.944;9.796;2024-01-06T14:20:10;5.53;;;4.80;;
75818;SDS011;64453;51.944;9.796;2024-01-06T14:22:38;5.83;;;5.23;;
75818;SDS011;64453;51.944;9.796;2024-01-06T14:25:05;6.43;;;4.80;;
75818;SDS011;64453;51.944;9.796;2024-01-06T14:27:33;4.20;;;3.80;;
75818;SDS011;64453;51.944;9.796;2024-01-06T14:30:00;4.27;;;3.63;;
75818;SDS011;64453;51.944;9.796;2024-01-06T14:32:27;3.70;;;3.37;;
75818;SDS011;64453;51.944;9.796;2024-01-06T14:34:54;3.50;;;3.20;;
75818;SDS011;64453;51.944;9.796;2024-01-06T14:37:23;4.60;;;4.07;;
75818;SDS011;64453;51.944;9.796;2024-01-06T14:39:49;4.17;;;3.50;;
75818;SDS011;64453;51.944;9.796;2024-01-06T14:42:16;3.37;;;3.07;;
75818;SDS011;64453;51.944;9.796;2024-01-06T14:44:44;2.80;;;2.60;;
75818;SDS011;64453;51.944;9.796;2024-01-06T14:47:12;4.00;;;3.60;;
75818;SDS011;64453;51.944;9.796;2024-01-06T14:49:39;4.20;;;3.70;;
75818;SDS011;64453;51.944;9.796;2024-01-06T14:52:07;3.40;;;3.10;;
75818;SDS011;64453;51.944;9.796;2024-01-06T14:54:35;3.53;;;3.23;;
75818;SDS011;64453;51.944;9.796;2024-01-06T14:57:04;4.60;;;3.10;;